Time;durP1;ratioP1;P1;durP2;ratioP2;P2;SDS_P1;SDS_P2;PMS_P1;PMS_P2;Temp;Humidity;BMP_temperature;BMP_pressure;BME280_temperature;BME280_humidity;BME280_pressure;Samples;Min_cycle;Max_cycle;Signal;HPM_P1;HPM_P2
2021/12/30 00:01:40;;;;;;;27.45;4.32;;;8.70;99.90;;;;;;4989887;28;20411;-70
2021/12/30 00:04:06;;;;;;;21.85;4.82;;;8.70;99.90;;;;;;4990424;28;20120;-70
2021/12/30 00:06:38;;;;;;;22.50;4.38;;;8.70;99.90;;;;;;4988496;28;20054;-70
2021/12/30 00:09:05;;;;;;;21.27;4.32;;;8.70;99.90;;;;;;4989176;28;20510;-70
2021/12/30 00:11:30;;;;;;;21.05;3.97;;;8.80;99.90;;;;;;4988807;28;20494;-70
2021/12/30 00:13:56;;;;;;;28.63;4.70;;;8.70;99.90;;;;;;4989020;28;20077;-70
2021/12/30 00:16:22;;;;;;;28.50;4.50;;;8.70;99.90;;;;;;4988049;28;20046;-70
2021/12/30 00:18:49;;;;;;;32.25;4.70;;;8.70;99.90;;;;;;4988592;28;20121;-70
2021/12/30 00:21:15;;;;;;;31.55;4.65;;;8.70;99.90;;;;;;4980134;28;20125;-70
2021/12/30 00:23:41;;;;;;;32.55;4.80;;;8.60;99.90;;;;;;4990082;28;20034;-70
2021/12/30 00:26:07;;;;;;;27.40;5.68;;;8.70;99.90;;;;;;4989811;28;20049;-70
2021/12/30 00:28:33;;;;;;;41.08;6.35;;;8.60;99.90;;;;;;4988014;28;20042;-71
2021/12/30 00:30:59;;;;;;;34.85;5.60;;;8.60;99.90;;;;;;4989423;28;20130;-70
2021/12/30 00:33:25;;;;;;;39.83;6.15;;;8.70;99.90;;;;;;4989757;28;20121;-70
2021/12/30 00:35:51;;;;;;;35.75;5.20;;;8.70;99.90;;;;;;4989079;28;20038;-70
2021/12/30 00:38:17;;;;;;;39.47;6.22;;;8.70;99.90;;;;;;4988741;28;20053;-70
2021/12/30 00:40:43;;;;;;;37.00;6.15;;;8.70;99.90;;;;;;4971304;28;20045;-70
2021/12/30 00:43:09;;;;;;;33.13;5.10;;;8.70;99.90;;;;;;4988543;28;20042;-70
2021/12/30 00:45:35;;;;;;;28.63;5.25;;;8.70;99.90;;;;;;4988773;28;20501;-70
2021/12/30 00:48:02;;;;;;;42.30;6.35;;;8.70;99.90;;;;;;4988281;28;20445;-70
2021/12/30 00:50:30;;;;;;;44.17;6.10;;;8.70;99.90;;;;;;4989491;28;20125;-70
2021/12/30 00:52:58;;;;;;;37.30;6.55;;;8.70;99.90;;;;;;4991699;28;20378;-70
2021/12/30 00:55:24;;;;;;;42.50;6.47;;;8.60;99.90;;;;;;4989594;28;20129;-70
2021/12/30 00:57:49;;;;;;;39.55;6.70;;;8.70;99.90;;;;;;4988087;28;20541;-71
2021/12/30 01:00:18;;;;;;;42.45;7.25;;;8.70;99.90;;;;;;4981657;28;20058;-71
2021/12/30 01:02:44;;;;;;;40.10;6.38;;;8.70;99.90;;;;;;4987525;28;20046;-70
2021/12/30 01:05:11;;;;;;;44.78;7.32;;;8.70;99.90;;;;;;4987706;28;20054;-70
2021/12/30 01:07:37;;;;;;;36.13;5.65;;;8.60;99.90;;;;;;4988884;28;20566;-70
2021/12/30 01:10:06;;;;;;;45.38;7.53;;;9.60;99.90;;;;;;4981953;28;20403;-70
2021/12/30 01:12:31;;;;;;;44.08;6.30;;;8.60;99.90;;;;;;4983785;28;20142;-70
2021/12/30 01:14:57;;;;;;;41.67;7.25;;;8.60;99.90;;;;;;4985903;28;20078;-70
2021/12/30 01:17:43;;;;;;;43.45;6.35;;;8.60;99.90;;;;;;4989349;28;20043;-70
2021/12/30 01:20:11;;;;;;;40.22;8.07;;;8.60;99.90;;;;;;4989232;28;20050;-70
2021/12/30 01:22:37;;;;;;;41.45;5.97;;;8.50;99.90;;;;;;4989956;28;20054;-70
2021/12/30 01:25:06;;;;;;;39.58;7.28;;;8.60;99.90;;;;;;4988056;28;20475;-70
2021/12/30 01:27:33;;;;;;;42.13;7.32;;;8.50;99.90;;;;;;4983355;28;20380;-70
2021/12/30 01:29:59;;;;;;;37.42;6.22;;;8.60;99.90;;;;;;4977399;28;20394;-70
2021/12/30 01:32:25;;;;;;;37.25;6.43;;;8.60;99.90;;;;;;4987068;28;20152;-70
2021/12/30 01:34:52;;;;;;;36.20;7.13;;;8.60;99.90;;;;;;4988892;28;20049;-70
2021/12/30 01:37:21;;;;;;;34.53;6.65;;;8.50;99.90;;;;;;4983116;28;20144;-70
2021/12/30 01:39:46;;;;;;;33.53;6.35;;;8.50;99.90;;;;;;4985947;28;20101;-69
2021/12/30 01:42:12;;;;;;;50.92;8.25;;;8.50;99.90;;;;;;4989644;28;20051;-70
2021/12/30 01:44:38;;;;;;;47.15;6.75;;;8.50;99.90;;;;;;4987419;28;20038;-69
2021/12/30 01:47:04;;;;;;;43.53;8.25;;;8.50;99.90;;;;;;4990925;28;20482;-69
2021/12/30 01:49:30;;;;;;;47.60;7.88;;;8.50;99.90;;;;;;4982481;28;20046;-68
2021/12/30 01:51:57;;;;;;;37.83;6.93;;;8.40;99.90;;;;;;4991499;28;20440;-68
2021/12/30 01:54:25;;;;;;;34.78;7.03;;;8.40;99.90;;;;;;4990384;28;20066;-68
2021/12/30 01:56:51;;;;;;;39.63;6.93;;;8.30;99.90;;;;;;4995186;28;20042;-68
2021/12/30 01:59:23;;;;;;;36.40;6.57;;;8.30;99.90;;;;;;4989906;28;20380;-68
2021/12/30 02:01:53;;;;;;;44.38;6.50;;;8.40;99.90;;;;;;4991247;28;20042;-68
2021/12/30 02:04:19;;;;;;;44.15;6.75;;;8.40;99.90;;;;;;4990431;28;20181;-68
2021/12/30 02:06:45;;;;;;;39.15;7.20;;;8.30;99.90;;;;;;4992033;28;20082;-68
2021/12/30 02:09:11;;;;;;;37.35;7.45;;;8.30;99.90;;;;;;4991185;28;20104;-68
2021/12/30 02:11:37;;;;;;;41.10;6.95;;;8.30;99.90;;;;;;4990507;28;20051;-68
2021/12/30 02:14:02;;;;;;;39.70;6.50;;;8.40;99.90;;;;;;4989369;28;20041;-68
2021/12/30 02:16:28;;;;;;;42.25;6.57;;;8.40;99.90;;;;;;4991457;28;20453;-69
2021/12/30 02:18:54;;;;;;;40.83;6.10;;;8.40;99.90;;;;;;4990578;28;20077;-69
2021/12/30 02:21:20;;;;;;;42.75;6.47;;;8.40;99.90;;;;;;4990815;28;20093;-68
2021/12/30 02:23:45;;;;;;;38.55;6.15;;;8.30;99.90;;;;;;4991591;28;20062;-68
2021/12/30 02:26:15;;;;;;;45.65;7.05;;;8.40;99.90;;;;;;4991399;28;20050;-68
2021/12/30 02:28:41;;;;;;;41.53;7.13;;;8.40;99.90;;;;;;4991860;28;20435;-68
2021/12/30 02:31:11;;;;;;;41.92;6.10;;;8.40;99.90;;;;;;4990934;28;20054;-68
2021/12/30 02:33:38;;;;;;;40.33;6.43;;;8.40;99.90;;;;;;4990287;28;20045;-68
2021/12/30 02:36:04;;;;;;;33.17;5.28;;;8.40;99.90;;;;;;4989400;28;20050;-68
2021/12/30 02:38:30;;;;;;;41.10;6.22;;;8.40;99.90;;;;;;4990845;28;20673;-68
2021/12/30 02:40:58;;;;;;;46.05;7.40;;;8.40;99.90;;;;;;4991137;28;20042;-69
2021/12/30 02:43:26;;;;;;;45.08;6.85;;;8.40;99.90;;;;;;4990642;28;20406;-69
2021/12/30 02:45:53;;;;;;;48.08;7.80;;;8.30;99.90;;;;;;4991129;28;20390;-69
2021/12/30 02:48:23;;;;;;;41.92;6.30;;;8.30;99.90;;;;;;4990927;28;20074;-69
2021/12/30 02:50:52;;;;;;;37.78;6.30;;;8.70;99.90;;;;;;4990509;28;20477;-69
2021/12/30 02:53:17;;;;;;;39.63;6.63;;;8.30;99.90;;;;;;4989355;28;20050;-69
2021/12/30 02:55:44;;;;;;;41.05;6.65;;;8.30;99.90;;;;;;4990547;28;20108;-68
2021/12/30 02:58:11;;;;;;;39.75;7.28;;;8.30;99.90;;;;;;4988955;28;20490;-68
2021/12/30 03:00:39;;;;;;;37.13;7.25;;;8.30;99.90;;;;;;4991313;28;20046;-68
2021/12/30 03:03:05;;;;;;;44.15;6.68;;;8.30;99.90;;;;;;4973066;28;20065;-68
2021/12/30 03:05:32;;;;;;;47.42;7.40;;;8.40;99.90;;;;;;4991353;28;20034;-68
2021/12/30 03:07:58;;;;;;;43.25;7.45;;;8.30;99.90;;;;;;4990453;28;20042;-68
2021/12/30 03:10:28;;;;;;;41.60;7.13;;;8.30;99.90;;;;;;4989771;28;20049;-69
2021/12/30 03:13:03;;;;;;;46.05;7.70;;;8.50;99.90;;;;;;4990997;28;20043;-69
2021/12/30 03:15:29;;;;;;;47.87;7.77;;;8.40;99.90;;;;;;4990346;28;20042;-68
2021/12/30 03:17:54;;;;;;;42.60;6.68;;;8.50;99.90;;;;;;4990445;28;20305;-69
2021/12/30 03:20:20;;;;;;;41.45;6.85;;;8.50;99.90;;;;;;4988821;28;20172;-68
2021/12/30 03:22:46;;;;;;;43.03;7.72;;;8.50;99.90;;;;;;4988947;28;20655;-69
2021/12/30 03:25:14;;;;;;;47.42;8.20;;;8.70;99.90;;;;;;4990251;28;20517;-68
2021/12/30 03:27:40;;;;;;;44.13;8.45;;;8.50;99.90;;;;;;4983696;28;20061;-68
2021/12/30 03:30:10;;;;;;;56.17;9.98;;;8.60;99.90;;;;;;4989712;28;20046;-68
2021/12/30 03:32:36;;;;;;;51.90;9.35;;;8.70;99.90;;;;;;4989731;28;20046;-68
2021/12/30 03:35:03;;;;;;;53.95;9.52;;;8.70;99.90;;;;;;4991060;28;20050;-68
2021/12/30 03:37:28;;;;;;;45.92;11.25;;;8.70;99.90;;;;;;4990107;28;20199;-68
2021/12/30 03:39:54;;;;;;;47.83;9.13;;;8.70;99.90;;;;;;4989258;28;20142;-69
2021/12/30 03:42:20;;;;;;;45.97;10.70;;;8.70;99.90;;;;;;4990443;28;20062;-68
2021/12/30 03:44:46;;;;;;;52.53;10.65;;;8.80;99.90;;;;;;4989903;28;20089;-68
2021/12/30 03:47:15;;;;;;;52.42;10.75;;;8.80;99.90;;;;;;4988794;28;20042;-68
2021/12/30 03:49:44;;;;;;;47.05;10.35;;;8.80;99.90;;;;;;4987331;28;20050;-68
2021/12/30 03:52:14;;;;;;;61.78;12.30;;;8.90;99.90;;;;;;4990102;28;20097;-68
2021/12/30 03:54:40;;;;;;;46.67;11.10;;;9.70;99.90;;;;;;4989089;28;20061;-68
2021/12/30 03:57:06;;;;;;;52.08;11.52;;;9.30;99.90;;;;;;4990549;28;20042;-68
2021/12/30 03:59:31;;;;;;;48.35;12.15;;;8.90;99.90;;;;;;4976153;28;20291;-68
2021/12/30 04:01:57;;;;;;;47.83;10.68;;;8.90;99.90;;;;;;4990189;28;20047;-69
2021/12/30 04:04:23;;;;;;;53.72;11.95;;;9.00;99.90;;;;;;4989677;28;20120;-68
2021/12/30 04:06:48;;;;;;;48.13;12.00;;;9.00;99.90;;;;;;4990115;28;20124;-69
2021/12/30 04:09:14;;;;;;;52.40;13.05;;;9.00;99.90;;;;;;4988164;28;20046;-68
2021/12/30 04:11:39;;;;;;;51.40;12.55;;;9.10;99.90;;;;;;4990402;28;20480;-68
2021/12/30 04:14:05;;;;;;;60.55;11.95;;;9.00;99.90;;;;;;4988521;28;20094;-69
2021/12/30 04:16:32;;;;;;;51.88;11.80;;;9.00;99.90;;;;;;4989912;28;20455;-68
2021/12/30 04:18:58;;;;;;;48.85;11.15;;;9.00;99.90;;;;;;4989985;28;20048;-68
2021/12/30 04:21:25;;;;;;;55.63;11.18;;;9.00;99.90;;;;;;4988115;28;20058;-68
2021/12/30 04:23:54;;;;;;;53.08;9.70;;;9.10;99.90;;;;;;4988161;28;20042;-68
2021/12/30 04:26:19;;;;;;;51.78;9.55;;;9.10;99.90;;;;;;4971193;28;20046;-68
2021/12/30 04:28:45;;;;;;;51.90;10.55;;;9.30;99.90;;;;;;4988231;28;20069;-68
2021/12/30 04:31:12;;;;;;;44.75;9.40;;;9.30;99.90;;;;;;4972053;28;20046;-68
2021/12/30 04:33:38;;;;;;;55.55;11.45;;;9.40;99.90;;;;;;4988725;28;20046;-68
2021/12/30 04:36:04;;;;;;;54.10;10.43;;;9.40;99.90;;;;;;4988882;28;20454;-68
2021/12/30 04:38:31;;;;;;;59.17;11.15;;;9.30;99.90;;;;;;4989649;28;20394;-68
2021/12/30 04:40:57;;;;;;;50.17;11.20;;;9.40;99.90;;;;;;4990843;28;20100;-68
2021/12/30 04:43:24;;;;;;;54.15;10.77;;;9.50;99.90;;;;;;4986779;28;20363;-69
2021/12/30 04:45:50;;;;;;;56.65;11.32;;;9.60;99.90;;;;;;4988232;28;20530;-69
2021/12/30 04:48:16;;;;;;;52.28;10.13;;;9.60;99.90;;;;;;4984746;28;20125;-68
2021/12/30 04:50:45;;;;;;;55.70;11.02;;;9.60;99.90;;;;;;4987846;28;20038;-68
2021/12/30 04:53:11;;;;;;;50.47;10.63;;;9.60;99.90;;;;;;4991798;28;20046;-68
2021/12/30 04:55:36;;;;;;;55.95;11.32;;;9.60;99.90;;;;;;4987641;28;20039;-68
2021/12/30 04:58:02;;;;;;;64.18;11.05;;;9.60;99.90;;;;;;4987563;28;20518;-68
2021/12/30 05:00:28;;;;;;;59.95;12.55;;;9.70;99.90;;;;;;4984268;28;20080;-69
2021/12/30 05:05:22;;;;;;;63.42;13.10;;;9.70;99.90;;;;;;4989323;28;20464;-68
2021/12/30 05:07:48;;;;;;;57.45;11.68;;;9.80;99.90;;;;;;4988511;28;20088;-68
2021/12/30 05:10:13;;;;;;;60.90;14.10;;;9.80;99.90;;;;;;4988147;28;20046;-68
2021/12/30 05:12:39;;;;;;;58.25;13.60;;;9.90;99.90;;;;;;4989095;28;20050;-68
2021/12/30 05:15:05;;;;;;;63.33;13.15;;;10.00;99.90;;;;;;4989908;28;20128;-69
2021/12/30 05:17:31;;;;;;;63.92;14.85;;;10.10;99.90;;;;;;4988103;28;20042;-68
2021/12/30 05:19:56;;;;;;;67.28;15.57;;;10.10;99.90;;;;;;4987357;28;20523;-68
2021/12/30 05:22:22;;;;;;;80.32;16.98;;;10.10;99.90;;;;;;4987813;28;20050;-68
2021/12/30 05:24:47;;;;;;;60.10;16.70;;;10.30;99.90;;;;;;4987735;28;20062;-68
2021/12/30 05:27:13;;;;;;;70.70;17.00;;;10.30;99.90;;;;;;4990332;28;20078;-69
2021/12/30 05:29:39;;;;;;;64.93;17.52;;;10.40;99.90;;;;;;4990144;28;20072;-68
2021/12/30 05:32:04;;;;;;;62.97;15.32;;;10.50;99.90;;;;;;4991324;28;20117;-68
2021/12/30 05:34:30;;;;;;;70.50;18.23;;;10.50;99.90;;;;;;4977768;28;20058;-68
2021/12/30 05:36:56;;;;;;;73.00;17.75;;;10.60;99.90;;;;;;4974887;28;20043;-69
2021/12/30 05:39:21;;;;;;;80.35;19.85;;;10.70;99.90;;;;;;4983171;28;20410;-68
2021/12/30 05:41:47;;;;;;;67.07;18.52;;;10.60;99.90;;;;;;4971799;28;20065;-68
2021/12/30 05:44:12;;;;;;;67.88;19.45;;;10.60;99.90;;;;;;4987389;28;20389;-69
2021/12/30 05:46:38;;;;;;;65.93;19.48;;;10.60;99.90;;;;;;4987231;28;20065;-68
2021/12/30 05:49:03;;;;;;;64.40;18.05;;;10.70;99.90;;;;;;4971330;28;20042;-68
2021/12/30 05:51:29;;;;;;;65.07;18.70;;;10.70;99.90;;;;;;4987496;28;20061;-69
2021/12/30 05:53:55;;;;;;;49.85;17.05;;;10.70;99.90;;;;;;4970746;28;20042;-69
2021/12/30 05:56:20;;;;;;;42.90;15.00;;;10.70;99.90;;;;;;4987563;28;20046;-69
2021/12/30 05:58:46;;;;;;;56.80;16.25;;;10.70;99.90;;;;;;4987423;28;20483;-69
2021/12/30 06:01:12;;;;;;;43.10;13.80;;;10.80;99.90;;;;;;4987403;28;20073;-69
2021/12/30 06:03:37;;;;;;;36.97;13.60;;;10.80;99.90;;;;;;4986981;28;20108;-69
2021/12/30 06:06:03;;;;;;;30.38;12.05;;;10.90;99.90;;;;;;4988089;28;20555;-70
2021/12/30 06:08:29;;;;;;;37.03;13.10;;;10.80;99.90;;;;;;4985655;28;20062;-69
2021/12/30 06:10:54;;;;;;;31.77;12.63;;;10.90;99.90;;;;;;4991086;28;20043;-69
2021/12/30 06:13:20;;;;;;;28.67;11.80;;;10.90;99.90;;;;;;4986687;28;20383;-69
2021/12/30 06:15:45;;;;;;;31.92;11.82;;;10.80;99.90;;;;;;4986229;28;20049;-69
2021/12/30 06:18:11;;;;;;;32.15;11.93;;;10.80;99.90;;;;;;4989886;28;20116;-69
2021/12/30 06:20:37;;;;;;;32.42;11.93;;;10.90;99.90;;;;;;4987783;28;20082;-69
2021/12/30 06:23:02;;;;;;;34.28;12.43;;;10.90;99.90;;;;;;4987549;28;20042;-69
2021/12/30 06:25:28;;;;;;;28.73;12.32;;;10.90;99.90;;;;;;4985515;28;20046;-69
2021/12/30 06:27:54;;;;;;;30.35;12.32;;;10.90;99.90;;;;;;4981258;28;20402;-70
2021/12/30 06:30:20;;;;;;;29.10;11.30;;;11.00;99.90;;;;;;4985946;28;20073;-69
2021/12/30 06:32:45;;;;;;;31.45;13.38;;;11.50;99.90;;;;;;4972264;28;20042;-70
2021/12/30 06:35:11;;;;;;;30.73;12.75;;;11.10;99.90;;;;;;4989720;28;20100;-69
2021/12/30 06:37:38;;;;;;;28.08;12.98;;;11.00;99.90;;;;;;4991000;28;20090;-69
2021/12/30 06:40:06;;;;;;;40.08;13.88;;;11.00;99.90;;;;;;4989063;28;20125;-69
2021/12/30 06:42:32;;;;;;;41.78;14.45;;;11.10;99.90;;;;;;4990814;28;20936;-69
2021/12/30 06:44:58;;;;;;;39.17;14.48;;;11.10;99.90;;;;;;4990586;28;20046;-69
2021/12/30 06:47:24;;;;;;;44.25;14.32;;;11.10;99.90;;;;;;4991309;28;20093;-69
2021/12/30 06:49:50;;;;;;;41.47;14.13;;;11.10;99.90;;;;;;4990769;28;20123;-69
2021/12/30 06:52:16;;;;;;;48.92;15.25;;;11.10;99.90;;;;;;4991217;28;20065;-69
2021/12/30 06:54:42;;;;;;;49.63;15.52;;;11.20;99.90;;;;;;4989635;28;20054;-69
2021/12/30 06:57:11;;;;;;;52.40;15.55;;;11.20;99.90;;;;;;4989573;28;20050;-70
2021/12/30 06:59:37;;;;;;;43.10;15.02;;;11.10;99.90;;;;;;4989750;28;20046;-69
2021/12/30 07:02:05;;;;;;;47.60;14.70;;;11.10;99.90;;;;;;4990700;28;20130;-70
2021/12/30 07:04:30;;;;;;;45.63;14.32;;;11.10;99.90;;;;;;4990859;28;20445;-70
2021/12/30 07:06:56;;;;;;;49.65;13.85;;;11.20;99.90;;;;;;4993211;28;20062;-70
2021/12/30 07:09:22;;;;;;;41.45;13.90;;;12.30;99.90;;;;;;4988812;28;20057;-69
2021/12/30 07:11:49;;;;;;;39.53;13.02;;;11.20;99.90;;;;;;4991354;28;20092;-68
2021/12/30 07:14:25;;;;;;;31.60;11.27;;;11.20;99.90;;;;;;4989722;28;20133;-69
2021/12/30 07:16:51;;;;;;;38.75;12.60;;;11.30;99.90;;;;;;4991040;28;20054;-71
2021/12/30 07:19:17;;;;;;;35.47;11.68;;;11.20;99.90;;;;;;4990270;28;20113;-69
2021/12/30 07:21:43;;;;;;;29.10;10.50;;;11.30;99.90;;;;;;4989689;28;20142;-69
2021/12/30 07:24:09;;;;;;;32.05;11.15;;;11.30;99.90;;;;;;4971377;28;20050;-69
2021/12/30 07:26:35;;;;;;;28.35;11.38;;;11.30;99.90;;;;;;4989587;28;20776;-68
2021/12/30 07:29:01;;;;;;;29.95;10.70;;;11.30;99.90;;;;;;4990125;28;20034;-70
2021/12/30 07:31:28;;;;;;;24.20;10.13;;;11.30;99.90;;;;;;4989611;28;20605;-68
2021/12/30 07:33:53;;;;;;;23.45;9.80;;;12.50;99.90;;;;;;4990733;28;20086;-69
2021/12/30 07:36:20;;;;;;;26.00;10.43;;;11.40;99.90;;;;;;4990113;28;20227;-69
2021/12/30 07:38:47;;;;;;;18.98;8.40;;;11.40;99.90;;;;;;4988705;28;20439;-69
2021/12/30 07:41:12;;;;;;;19.58;8.32;;;11.40;99.90;;;;;;4988361;28;20141;-69
2021/12/30 07:43:38;;;;;;;18.70;8.50;;;11.40;99.90;;;;;;4989044;28;20141;-69
2021/12/30 07:46:06;;;;;;;18.02;8.43;;;11.40;99.90;;;;;;4988435;28;20050;-69
2021/12/30 07:48:31;;;;;;;20.50;9.48;;;11.50;99.90;;;;;;4988306;28;20069;-68
2021/12/30 07:50:57;;;;;;;17.95;8.68;;;11.50;99.90;;;;;;4989459;28;20046;-69
2021/12/30 07:53:23;;;;;;;18.35;9.07;;;11.40;99.90;;;;;;4987358;28;20049;-68
2021/12/30 07:55:49;;;;;;;19.13;8.73;;;11.40;99.90;;;;;;4988534;28;20148;-68
2021/12/30 07:58:15;;;;;;;14.45;7.78;;;11.50;99.90;;;;;;4988698;28;20046;-68
2021/12/30 08:00:42;;;;;;;14.85;7.90;;;11.50;99.90;;;;;;4989065;28;20546;-69
2021/12/30 08:03:08;;;;;;;14.23;8.10;;;11.50;99.90;;;;;;4990057;28;20137;-68
2021/12/30 08:05:33;;;;;;;14.00;7.03;;;11.50;99.90;;;;;;4988203;28;20034;-69
2021/12/30 08:07:59;;;;;;;13.65;7.78;;;11.50;99.90;;;;;;4991434;28;20101;-68
2021/12/30 08:10:26;;;;;;;13.45;7.50;;;11.40;99.90;;;;;;4987413;28;20458;-68
2021/12/30 08:12:54;;;;;;;10.95;7.10;;;11.40;99.90;;;;;;4971505;28;20065;-69
2021/12/30 08:15:20;;;;;;;12.90;7.47;;;11.40;99.90;;;;;;4987679;28;20057;-71
2021/12/30 08:17:48;;;;;;;11.85;6.85;;;11.50;99.90;;;;;;4986950;28;20042;-69
2021/12/30 08:20:15;;;;;;;9.63;6.07;;;11.80;99.90;;;;;;4990722;28;20113;-68
2021/12/30 08:22:40;;;;;;;8.95;6.00;;;11.50;99.90;;;;;;4989652;28;20058;-69
2021/12/30 08:25:08;;;;;;;7.47;5.43;;;11.50;99.90;;;;;;4988187;28;20049;-69
2021/12/30 08:27:34;;;;;;;7.70;5.30;;;11.60;99.90;;;;;;4987284;28;20125;-69
2021/12/30 08:30:00;;;;;;;6.70;4.43;;;11.60;99.90;;;;;;4987642;28;20042;-69
2021/12/30 08:32:26;;;;;;;7.22;4.35;;;11.60;99.90;;;;;;4988611;28;20499;-69
2021/12/30 08:34:51;;;;;;;5.80;4.07;;;11.60;99.90;;;;;;4988104;28;20054;-69
2021/12/30 08:37:18;;;;;;;9.18;5.40;;;11.70;99.90;;;;;;4987868;28;20100;-69
2021/12/30 08:39:44;;;;;;;6.82;4.80;;;11.60;99.90;;;;;;4988233;28;20097;-69
2021/12/30 08:42:22;;;;;;;9.68;5.00;;;11.70;99.90;;;;;;4988905;28;20085;-69
2021/12/30 08:44:48;;;;;;;8.77;5.80;;;11.70;99.90;;;;;;4987609;28;20462;-69
2021/12/30 08:47:14;;;;;;;10.10;6.60;;;11.70;99.90;;;;;;4987562;28;20084;-68
2021/12/30 08:49:46;;;;;;;9.82;5.88;;;11.70;99.90;;;;;;4988079;28;20050;-68
2021/12/30 08:52:14;;;;;;;11.95;7.13;;;11.70;99.90;;;;;;4971998;28;20046;-71
2021/12/30 08:54:39;;;;;;;11.65;7.50;;;11.80;99.90;;;;;;4986729;28;20057;-68
2021/12/30 08:57:05;;;;;;;12.45;6.68;;;11.80;99.90;;;;;;4987314;28;20046;-68
2021/12/30 08:59:31;;;;;;;17.13;7.38;;;11.80;99.90;;;;;;4987070;28;20047;-68
2021/12/30 09:01:57;;;;;;;20.23;6.60;;;12.00;99.90;;;;;;4988771;28;20480;-71
2021/12/30 09:04:23;;;;;;;13.05;7.13;;;12.30;99.90;;;;;;4988603;28;20412;-71
2021/12/30 09:06:48;;;;;;;13.02;5.82;;;11.80;99.90;;;;;;4987538;28;20085;-67
2021/12/30 09:09:14;;;;;;;11.40;6.30;;;11.80;99.90;;;;;;4987482;28;20406;-66
2021/12/30 09:11:39;;;;;;;11.70;6.20;;;11.80;99.90;;;;;;4987716;28;20046;-68
2021/12/30 09:14:05;;;;;;;15.88;5.88;;;11.90;99.90;;;;;;4987469;28;20046;-69
2021/12/30 09:16:31;;;;;;;11.35;5.80;;;12.20;99.90;;;;;;4971832;28;20141;-68
2021/12/30 09:18:57;;;;;;;18.08;6.13;;;11.90;99.90;;;;;;4969273;28;20121;-68
2021/12/30 09:21:22;;;;;;;16.45;7.18;;;11.90;99.90;;;;;;4968899;28;20092;-68
2021/12/30 09:23:48;;;;;;;17.27;7.10;;;11.90;99.90;;;;;;4969755;28;20046;-68
2021/12/30 09:26:14;;;;;;;16.75;6.60;;;11.90;99.90;;;;;;4984160;28;20188;-69
2021/12/30 09:28:40;;;;;;;20.10;6.53;;;12.60;99.90;;;;;;4986721;28;20065;-68
2021/12/30 09:31:06;;;;;;;17.75;6.47;;;11.80;99.90;;;;;;4988002;28;20062;-69
2021/12/30 09:33:32;;;;;;;15.18;6.80;;;11.90;99.90;;;;;;4989007;28;20042;-69
2021/12/30 09:36:00;;;;;;;18.08;6.25;;;12.30;99.90;;;;;;4987058;28;20418;-67
2021/12/30 09:38:25;;;;;;;12.68;5.43;;;11.90;99.90;;;;;;4987751;28;20053;-68
2021/12/30 09:40:51;;;;;;;17.45;6.43;;;12.60;99.90;;;;;;4988230;28;20046;-67
2021/12/30 09:43:17;;;;;;;15.75;5.90;;;11.90;99.90;;;;;;4984653;28;20561;-67
2021/12/30 09:45:43;;;;;;;18.35;5.75;;;11.90;99.90;;;;;;4988701;28;20030;-68
2021/12/30 09:48:11;;;;;;;17.98;6.00;;;11.90;99.90;;;;;;4988292;28;20402;-68
2021/12/30 09:50:51;;;;;;;13.88;5.80;;;12.00;99.90;;;;;;4987847;28;20391;-68
2021/12/30 09:53:19;;;;;;;17.30;6.18;;;11.90;99.90;;;;;;4988352;28;20184;-68
2021/12/30 09:55:45;;;;;;;20.60;7.18;;;11.90;99.90;;;;;;4988949;28;20517;-68
2021/12/30 09:58:10;;;;;;;23.10;7.35;;;12.10;99.90;;;;;;4990149;28;20042;-68
2021/12/30 10:00:37;;;;;;;22.58;6.68;;;11.90;99.90;;;;;;4992054;28;20043;-68
2021/12/30 10:03:03;;;;;;;20.50;6.95;;;11.90;99.90;;;;;;4986779;28;20495;-69
2021/12/30 10:05:32;;;;;;;19.10;6.70;;;11.90;99.90;;;;;;4986427;28;20053;-67
2021/12/30 10:08:14;;;;;;;23.23;7.65;;;11.90;99.90;;;;;;4989175;28;20046;-69
2021/12/30 10:10:42;;;;;;;26.25;7.80;;;11.90;99.90;;;;;;4988985;28;20086;-69
2021/12/30 10:13:17;;;;;;;24.38;6.53;;;11.90;99.90;;;;;;4990946;28;20053;-68
2021/12/30 10:15:44;;;;;;;;;;;11.90;99.90;;;;;;4992004;28;20057;-68
2021/12/30 10:18:09;;;;;;;18.63;6.50;;;11.90;99.90;;;;;;4991891;28;19921;-68
2021/12/30 10:20:39;;;;;;;23.73;6.65;;;11.90;99.90;;;;;;4991086;28;20522;-69
2021/12/30 10:23:15;;;;;;;21.58;6.03;;;11.90;99.90;;;;;;4992070;28;20061;-68
2021/12/30 10:25:43;;;;;;;22.83;6.07;;;12.00;99.90;;;;;;4991228;28;20137;-67
2021/12/30 10:28:25;;;;;;;27.95;6.50;;;12.00;99.90;;;;;;4994899;28;20173;-67
2021/12/30 10:30:55;;;;;;;26.33;6.25;;;12.00;99.90;;;;;;4988333;28;20054;-68
2021/12/30 10:33:27;;;;;;;25.13;5.93;;;12.00;99.90;;;;;;4991212;28;20038;-67
2021/12/30 10:35:54;;;;;;;23.40;5.43;;;12.00;99.90;;;;;;4978615;28;20042;-68
2021/12/30 10:38:27;;;;;;;27.23;6.53;;;12.00;99.90;;;;;;4975094;28;20430;-67
2021/12/30 10:40:58;;;;;;;24.10;7.15;;;12.10;99.90;;;;;;4990953;28;20042;-68
2021/12/30 10:43:37;;;;;;;21.27;6.85;;;12.00;99.90;;;;;;4990885;28;20050;-68
2021/12/30 10:46:05;;;;;;;23.58;6.82;;;12.00;99.90;;;;;;4989860;28;20129;-67
2021/12/30 10:48:32;;;;;;;25.40;7.10;;;12.00;99.90;;;;;;4990405;28;20054;-68
2021/12/30 10:51:34;;;;;;;22.95;6.97;;;12.00;99.90;;;;;;4988008;28;20503;-67
2021/12/30 10:54:20;;;;;;;21.05;6.25;;;11.90;99.90;;;;;;4985093;28;20477;-67
2021/12/30 10:57:01;;;;;;;27.67;7.00;;;11.90;99.90;;;;;;4955664;28;20053;-67
2021/12/30 10:59:31;;;;;;;27.05;6.38;;;12.00;99.90;;;;;;4969073;28;20436;-67
2021/12/30 11:01:58;;;;;;;32.50;7.57;;;12.00;99.90;;;;;;4971060;28;20086;-67
2021/12/30 11:04:37;;;;;;;31.20;6.40;;;12.00;99.90;;;;;;4970612;28;20138;-67
2021/12/30 11:07:04;;;;;;;27.80;7.00;;;12.00;99.90;;;;;;4972084;28;20066;-68
2021/12/30 11:09:29;;;;;;;24.38;5.93;;;11.90;99.90;;;;;;4970106;28;20072;-68
2021/12/30 11:11:58;;;;;;;28.92;5.85;;;12.00;99.90;;;;;;4986579;28;20035;-68
2021/12/30 11:14:27;;;;;;;26.50;6.07;;;12.20;99.90;;;;;;4967939;28;20054;-67
2021/12/30 11:16:59;;;;;;;28.85;6.63;;;12.00;99.90;;;;;;4989641;28;20050;-67
2021/12/30 11:19:29;;;;;;;29.67;6.97;;;12.00;99.90;;;;;;4989036;28;20057;-67
2021/12/30 11:21:58;;;;;;;29.10;7.38;;;12.00;99.90;;;;;;4990557;28;20046;-67
2021/12/30 11:24:25;;;;;;;31.05;6.95;;;11.90;99.90;;;;;;4988277;28;20050;-67
2021/12/30 11:26:51;;;;;;;36.03;7.45;;;12.00;99.90;;;;;;4991179;28;20058;-68
2021/12/30 11:29:17;;;;;;;32.25;7.93;;;12.00;99.90;;;;;;4989231;28;20065;-68
2021/12/30 11:31:43;;;;;;;29.60;7.40;;;12.20;99.90;;;;;;4990742;28;20426;-68
2021/12/30 11:34:09;;;;;;;39.83;7.97;;;12.00;99.90;;;;;;4990554;28;20054;-67
2021/12/30 11:36:34;;;;;;;31.20;6.95;;;12.00;99.90;;;;;;4990330;28;20330;-67
2021/12/30 11:39:03;;;;;;;35.97;7.43;;;12.00;99.90;;;;;;4989723;28;20448;-68
2021/12/30 11:41:32;;;;;;;43.22;9.18;;;12.00;99.90;;;;;;4989760;28;20065;-67
2021/12/30 11:43:58;;;;;;;27.80;7.32;;;12.00;99.90;;;;;;4988682;28;20050;-68
2021/12/30 11:46:45;;;;;;;42.45;8.65;;;12.00;99.90;;;;;;4988611;28;20046;-68
2021/12/30 11:49:13;;;;;;;39.33;7.63;;;12.00;99.90;;;;;;4972655;28;20465;-68
2021/12/30 11:51:44;;;;;;;36.35;7.63;;;12.00;99.90;;;;;;4990128;28;20042;-68
2021/12/30 11:54:34;;;;;;;45.30;9.10;;;12.10;99.90;;;;;;4988824;28;20093;-69
2021/12/30 11:57:26;;;;;;;45.63;8.18;;;12.00;99.90;;;;;;4989615;28;20443;-68
2021/12/30 12:00:30;;;;;;;41.72;7.75;;;12.10;99.90;;;;;;4985143;28;20054;-68
2021/12/30 12:03:01;;;;;;;48.00;7.82;;;12.10;99.90;;;;;;4969953;28;20046;-68
2021/12/30 12:05:44;;;;;;;33.70;7.22;;;12.00;99.90;;;;;;4970456;28;20043;-68
2021/12/30 12:08:11;;;;;;;37.45;7.82;;;12.10;99.90;;;;;;4970867;28;20050;-68
2021/12/30 12:10:40;;;;;;;37.00;6.93;;;12.10;99.90;;;;;;4970072;28;20121;-68
2021/12/30 12:13:43;;;;;;;39.92;7.97;;;12.10;99.90;;;;;;4970557;28;20053;-68
2021/12/30 12:16:10;;;;;;;34.88;7.60;;;12.10;99.90;;;;;;4969187;28;20047;-68
2021/12/30 12:18:35;;;;;;;43.22;7.85;;;12.20;99.90;;;;;;4973774;28;20172;-68
2021/12/30 12:21:06;;;;;;;36.05;7.05;;;12.20;99.90;;;;;;4971913;28;20129;-68
2021/12/30 12:23:37;;;;;;;38.60;7.10;;;12.30;99.90;;;;;;4967469;28;20065;-66
2021/12/30 12:26:08;;;;;;;27.90;5.75;;;12.30;99.90;;;;;;4972425;28;20055;-69
2021/12/30 12:28:34;;;;;;;41.85;7.25;;;12.30;99.90;;;;;;4969780;28;20479;-68
2021/12/30 12:31:00;;;;;;;37.13;6.55;;;12.40;99.90;;;;;;4969529;28;20041;-68
2021/12/30 12:33:28;;;;;;;39.13;7.03;;;12.70;99.90;;;;;;4952373;28;20467;-68
2021/12/30 12:35:54;;;;;;;36.67;6.53;;;12.30;99.90;;;;;;4970693;28;20146;-68
2021/12/30 12:38:36;;;;;;;35.90;7.30;;;12.30;99.90;;;;;;4967636;28;20058;-68
2021/12/30 12:41:22;;;;;;;39.00;6.68;;;12.60;99.90;;;;;;4957535;28;20047;-68
2021/12/30 12:43:57;;;;;;;42.20;6.95;;;12.30;99.90;;;;;;4968241;28;20057;-68